Calumet — WDE3568 — position and weather

sailwx.info

Track history (hours):
 
Tides and Currents Weather Stations Pressure Air Temp Water Temp Dewpoint Dewpoint Depression Visibility Wind Speed Wind Dir Waves Ship Positions

Calumet

Owner: Grand River Navigation Company, Traverse City, MI. More information available from US FCC via Universal Licensing System and Coast Guard Vessel Documentation Center.

Last reported at 2014-Dec-19 08:33 UTC. Time now 2014-Dec-19 08:42 UTC.
Position N 45°08' W 085°49'.

Length 192 m; draft 6.3 m.

Type: Cargo ship. MMSI: 367132630.

Date/timePositionNaut miles runAvg speedWind from/ knotsBaromVisibWave heightAir tempDewpointWater temp
2014-Dec-19 08:33N 45°08' W 085°49'5311.5
2014-Dec-19 04:00N 44°24' W 086°30'1212.0 070 / 81028.010.8 0.5-2.7
2014-Dec-19 03:00N 44°12' W 086°30'13419.1 050 / 141028.010.8 0.5-2.2
2014-Dec-18 20:00N 42°00' W 087°00'   280 / 221026.0 1.0 0.5
2014-Dec-15 20:00N 44°00' W 086°18'5011.2 190 / 281012.5 18.8
2014-Dec-15 15:33N 44°49' W 086°22'1211.3
2014-Dec-15 14:30N 45°01' W 086°19'1211.5
2014-Dec-15 13:27N 45°13' W 086°15'1011.5
2014-Dec-15 12:33N 45°23' W 086°12'1211.6
2014-Dec-15 11:33N 45°34' W 086°08'1110.7
2014-Dec-15 10:33N 45°43' W 086°00'1211.8
2014-Dec-15 09:33N 45°49' W 085°45'1211.7
2014-Dec-15 08:33N 45°54' W 085°30'1212.1
2014-Dec-15 07:33N 45°52' W 085°13'1212.2
2014-Dec-15 06:33N 45°50' W 084°55'1212.3
2014-Dec-15 05:33N 45°47' W 084°38'1212.1
2014-Dec-15 04:33N 45°41' W 084°23'1311.4
2014-Dec-15 03:27N 45°39' W 084°05'36 1.9
2014-Dec-14 08:30N 45°18' W 083°24'26 1.5
2014-Dec-13 15:14N 45°33' W 083°55'1012.4
2014-Dec-13 14:28N 45°37' W 084°07'1111.7
2014-Dec-13 13:33N 45°41' W 084°21'1212.0
2014-Dec-13 12:33N 45°46' W 084°37'1211.9
2014-Dec-13 11:33N 45°49' W 084°53'1110.8
2014-Dec-13 10:33N 45°48' W 085°09'1211.7
2014-Dec-13 09:33N 45°38' W 085°17'1212.4
2014-Dec-13 08:33N 45°28' W 085°28'1212.4
2014-Dec-13 07:33N 45°18' W 085°38'1312.5
2014-Dec-13 06:33N 45°08' W 085°49'1212.3
2014-Dec-13 05:33N 44°59' W 086°01'1312.0
2014-Dec-13 04:30N 44°51' W 086°15'15014.3
2014-Dec-12 18:00N 42°24' W 087°00'163 3.2 280 / 211029.4 0.5 1.6
2014-Dec-10 15:15N 45°00' W 085°58'812.1
2014-Dec-10 14:33N 45°07' W 085°51'1212.3
2014-Dec-10 13:33N 45°17' W 085°41'1212.3
2014-Dec-10 12:33N 45°27' W 085°30'1212.3
2014-Dec-10 11:33N 45°37' W 085°20'1211.8
2014-Dec-10 10:33N 45°46' W 085°09'9 8.9
2014-Dec-10 09:33N 45°50' W 084°57'1212.2
2014-Dec-10 08:33N 45°50' W 084°40'1211.8
2014-Dec-10 07:33N 45°50' W 084°23'1212.1
2014-Dec-10 06:33N 45°49' W 084°06'  
Track history (hours):
 
Tides and Currents Weather Stations Pressure Air Temp Water Temp Dewpoint Dewpoint Depression Visibility Wind Speed Wind Dir Waves Ship Positions

Calumet

Owner: Grand River Navigation Company, Traverse City, MI. More information available from US FCC via Universal Licensing System and Coast Guard Vessel Documentation Center.

Last reported at 2014-Dec-19 08:33 UTC. Time now 2014-Dec-19 08:42 UTC.
Position N 45°08' W 085°49'.

Length 192 m; draft 6.3 m.

Type: Cargo ship. MMSI: 367132630.

Date/timePositionNaut miles runAvg speedWind from/ knotsBaromVisibWave heightAir tempDewpointWater temp
2014-Dec-19 08:33N 45°08' W 085°49'5311.5
2014-Dec-19 04:00N 44°24' W 086°30'1212.0 070 / 81028.010.8 0.5-2.7
2014-Dec-19 03:00N 44°12' W 086°30'13419.1 050 / 141028.010.8 0.5-2.2
2014-Dec-18 20:00N 42°00' W 087°00'   280 / 221026.0 1.0 0.5
2014-Dec-15 20:00N 44°00' W 086°18'5011.2 190 / 281012.5 18.8
2014-Dec-15 15:33N 44°49' W 086°22'1211.3
2014-Dec-15 14:30N 45°01' W 086°19'1211.5
2014-Dec-15 13:27N 45°13' W 086°15'1011.5
2014-Dec-15 12:33N 45°23' W 086°12'1211.6
2014-Dec-15 11:33N 45°34' W 086°08'1110.7
2014-Dec-15 10:33N 45°43' W 086°00'1211.8
2014-Dec-15 09:33N 45°49' W 085°45'1211.7
2014-Dec-15 08:33N 45°54' W 085°30'1212.1
2014-Dec-15 07:33N 45°52' W 085°13'1212.2
2014-Dec-15 06:33N 45°50' W 084°55'1212.3
2014-Dec-15 05:33N 45°47' W 084°38'1212.1
2014-Dec-15 04:33N 45°41' W 084°23'1311.4
2014-Dec-15 03:27N 45°39' W 084°05'36 1.9
2014-Dec-14 08:30N 45°18' W 083°24'26 1.5
2014-Dec-13 15:14N 45°33' W 083°55'1012.4
2014-Dec-13 14:28N 45°37' W 084°07'1111.7
2014-Dec-13 13:33N 45°41' W 084°21'1212.0
2014-Dec-13 12:33N 45°46' W 084°37'1211.9
2014-Dec-13 11:33N 45°49' W 084°53'1110.8
2014-Dec-13 10:33N 45°48' W 085°09'1211.7
2014-Dec-13 09:33N 45°38' W 085°17'1212.4
2014-Dec-13 08:33N 45°28' W 085°28'1212.4
2014-Dec-13 07:33N 45°18' W 085°38'1312.5
2014-Dec-13 06:33N 45°08' W 085°49'1212.3
2014-Dec-13 05:33N 44°59' W 086°01'1312.0
2014-Dec-13 04:30N 44°51' W 086°15'15014.3
2014-Dec-12 18:00N 42°24' W 087°00'163 3.2 280 / 211029.4 0.5 1.6
2014-Dec-10 15:15N 45°00' W 085°58'812.1
2014-Dec-10 14:33N 45°07' W 085°51'1212.3
2014-Dec-10 13:33N 45°17' W 085°41'1212.3
2014-Dec-10 12:33N 45°27' W 085°30'1212.3
2014-Dec-10 11:33N 45°37' W 085°20'1211.8
2014-Dec-10 10:33N 45°46' W 085°09'9 8.9
2014-Dec-10 09:33N 45°50' W 084°57'1212.2
2014-Dec-10 08:33N 45°50' W 084°40'1211.8
2014-Dec-10 07:33N 45°50' W 084°23'1212.1
2014-Dec-10 06:33N 45°49' W 084°06'  

Dump ship's entire track history